sensor_id;sensor_type;location;lat;lon;timestamp;P1;durP1;ratioP1;P2;durP2;ratioP2
15577;SDS011;17667;45.598;5.214;2023-04-01T00:01:30;0.60;;;0.60;;
15577;SDS011;17667;45.598;5.214;2023-04-01T00:04:17;0.67;;;0.50;;
15577;SDS011;17667;45.598;5.214;2023-04-01T00:07:06;0.40;;;0.40;;
15577;SDS011;17667;45.598;5.214;2023-04-01T00:09:54;0.63;;;0.40;;
15577;SDS011;17667;45.598;5.214;2023-04-01T00:12:42;0.90;;;0.50;;
15577;SDS011;17667;45.598;5.214;2023-04-01T00:15:31;0.57;;;0.40;;
15577;SDS011;17667;45.598;5.214;2023-04-01T00:18:19;0.40;;;0.40;;
15577;SDS011;17667;45.598;5.214;2023-04-01T00:21:07;0.30;;;0.30;;
15577;SDS011;17667;45.598;5.214;2023-04-01T00:23:55;0.40;;;0.40;;
15577;SDS011;17667;45.598;5.214;2023-04-01T00:26:43;0.50;;;0.37;;
15577;SDS011;17667;45.598;5.214;2023-04-01T00:29:33;0.33;;;0.33;;
15577;SDS011;17667;45.598;5.214;2023-04-01T00:32:22;0.30;;;0.30;;
15577;SDS011;17667;45.598;5.214;2023-04-01T00:35:10;0.37;;;0.37;;
15577;SDS011;17667;45.598;5.214;2023-04-01T00:37:58;0.30;;;0.30;;
15577;SDS011;17667;45.598;5.214;2023-04-01T00:40:46;0.43;;;0.40;;
15577;SDS011;17667;45.598;5.214;2023-04-01T00:43:36;0.30;;;0.30;;
15577;SDS011;17667;45.598;5.214;2023-04-01T00:46:24;0.40;;;0.40;;
15577;SDS011;17667;45.598;5.214;2023-04-01T00:49:13;0.23;;;0.23;;
15577;SDS011;17667;45.598;5.214;2023-04-01T00:52:02;0.30;;;0.30;;
15577;SDS011;17667;45.598;5.214;2023-04-01T00:54:53;0.30;;;0.30;;
15577;SDS011;17667;45.598;5.214;2023-04-01T00:57:43;0.30;;;0.30;;
15577;SDS011;17667;45.598;5.214;2023-04-01T01:00:34;0.40;;;0.40;;
15577;SDS011;17667;45.598;5.214;2023-04-01T01:03:23;0.40;;;0.40;;
15577;SDS011;17667;45.598;5.214;2023-04-01T01:06:13;0.30;;;0.30;;
15577;SDS011;17667;45.598;5.214;2023-04-01T01:09:17;0.30;;;0.30;;
15577;SDS011;17667;45.598;5.214;2023-04-01T01:12:16;0.93;;;0.40;;
15577;SDS011;17667;45.598;5.214;2023-04-01T01:15:09;0.83;;;0.50;;
15577;SDS011;17667;45.598;5.214;2023-04-01T01:18:05;0.40;;;0.40;;
15577;SDS011;17667;45.598;5.214;2023-04-01T01:21:05;0.60;;;0.60;;
15577;SDS011;17667;45.598;5.214;2023-04-01T01:24:22;0.47;;;0.40;;
15577;SDS011;17667;45.598;5.214;2023-04-01T01:27:29;0.50;;;0.40;;
15577;SDS011;17667;45.598;5.214;2023-04-01T01:30:22;0.37;;;0.37;;
15577;SDS011;17667;45.598;5.214;2023-04-01T01:33:28;0.57;;;0.53;;
15577;SDS011;17667;45.598;5.214;2023-04-01T01:36:32;0.40;;;0.40;;
15577;SDS011;17667;45.598;5.214;2023-04-01T01:39:24;0.30;;;0.30;;
15577;SDS011;17667;45.598;5.214;2023-04-01T01:42:15;0.30;;;0.30;;
15577;SDS011;17667;45.598;5.214;2023-04-01T01:45:06;0.30;;;0.30;;
15577;SDS011;17667;45.598;5.214;2023-04-01T01:47:57;0.40;;;0.40;;
15577;SDS011;17667;45.598;5.214;2023-04-01T01:50:47;0.40;;;0.37;;
15577;SDS011;17667;45.598;5.214;2023-04-01T01:53:38;0.30;;;0.30;;
15577;SDS011;17667;45.598;5.214;2023-04-01T01:56:26;0.30;;;0.30;;
15577;SDS011;17667;45.598;5.214;2023-04-01T01:59:16;0.20;;;0.20;;
15577;SDS011;17667;45.598;5.214;2023-04-01T02:02:07;0.40;;;0.30;;
15577;SDS011;17667;45.598;5.214;2023-04-01T02:04:57;0.40;;;0.40;;
15577;SDS011;17667;45.598;5.214;2023-04-01T02:07:46;0.30;;;0.30;;
15577;SDS011;17667;45.598;5.214;2023-04-01T02:10:42;0.17;;;0.17;;
15577;SDS011;17667;45.598;5.214;2023-04-01T02:13:38;0.17;;;0.17;;
15577;SDS011;17667;45.598;5.214;2023-04-01T02:16:31;0.20;;;0.20;;
15577;SDS011;17667;45.598;5.214;2023-04-01T02:19:24;0.10;;;0.10;;
15577;SDS011;17667;45.598;5.214;2023-04-01T02:22:18;0.20;;;0.20;;
15577;SDS011;17667;45.598;5.214;2023-04-01T02:25:09;0.30;;;0.20;;
15577;SDS011;17667;45.598;5.214;2023-04-01T02:28:00;0.40;;;0.40;;
15577;SDS011;17667;45.598;5.214;2023-04-01T02:30:51;0.63;;;0.43;;
15577;SDS011;17667;45.598;5.214;2023-04-01T02:33:40;0.40;;;0.40;;
15577;SDS011;17667;45.598;5.214;2023-04-01T02:36:28;0.70;;;0.40;;
15577;SDS011;17667;45.598;5.214;2023-04-01T02:39:16;0.60;;;0.50;;
15577;SDS011;17667;45.598;5.214;2023-04-01T02:42:04;0.80;;;0.60;;
15577;SDS011;17667;45.598;5.214;2023-04-01T02:44:53;1.30;;;0.80;;
15577;SDS011;17667;45.598;5.214;2023-04-01T02:47:41;0.83;;;0.70;;
15577;SDS011;17667;45.598;5.214;2023-04-01T02:50:29;1.03;;;0.90;;
15577;SDS011;17667;45.598;5.214;2023-04-01T02:53:16;0.70;;;0.67;;
15577;SDS011;17667;45.598;5.214;2023-04-01T02:56:04;0.67;;;0.63;;
15577;SDS011;17667;45.598;5.214;2023-04-01T02:58:52;0.50;;;0.50;;
15577;SDS011;17667;45.598;5.214;2023-04-01T03:01:42;0.50;;;0.50;;
15577;SDS011;17667;45.598;5.214;2023-04-01T03:04:29;0.93;;;0.70;;
15577;SDS011;17667;45.598;5.214;2023-04-01T03:07:17;0.80;;;0.80;;
15577;SDS011;17667;45.598;5.214;2023-04-01T03:10:07;0.87;;;0.80;;
15577;SDS011;17667;45.598;5.214;2023-04-01T03:12:55;1.63;;;0.90;;
15577;SDS011;17667;45.598;5.214;2023-04-01T03:15:44;1.73;;;1.20;;
15577;SDS011;17667;45.598;5.214;2023-04-01T03:18:34;1.93;;;1.20;;
15577;SDS011;17667;45.598;5.214;2023-04-01T03:21:22;1.20;;;1.00;;
15577;SDS011;17667;45.598;5.214;2023-04-01T03:24:10;1.77;;;1.30;;
15577;SDS011;17667;45.598;5.214;2023-04-01T03:26:58;1.63;;;1.10;;
15577;SDS011;17667;45.598;5.214;2023-04-01T03:29:46;1.20;;;1.00;;
15577;SDS011;17667;45.598;5.214;2023-04-01T03:32:33;1.43;;;1.10;;
15577;SDS011;17667;45.598;5.214;2023-04-01T03:35:23;1.27;;;0.90;;
15577;SDS011;17667;45.598;5.214;2023-04-01T03:38:10;2.57;;;1.37;;
15577;SDS011;17667;45.598;5.214;2023-04-01T03:40:58;2.13;;;1.20;;
15577;SDS011;17667;45.598;5.214;2023-04-01T03:43:46;1.83;;;1.30;;
15577;SDS011;17667;45.598;5.214;2023-04-01T03:46:33;1.53;;;1.00;;
15577;SDS011;17667;45.598;5.214;2023-04-01T03:49:21;1.57;;;0.90;;
15577;SDS011;17667;45.598;5.214;2023-04-01T03:52:11;1.00;;;0.87;;
15577;SDS011;17667;45.598;5.214;2023-04-01T03:54:58;1.00;;;0.80;;
15577;SDS011;17667;45.598;5.214;2023-04-01T03:57:46;0.70;;;0.70;;
15577;SDS011;17667;45.598;5.214;2023-04-01T04:00:36;1.23;;;0.90;;
15577;SDS011;17667;45.598;5.214;2023-04-01T04:03:24;0.77;;;0.77;;
15577;SDS011;17667;45.598;5.214;2023-04-01T04:06:13;1.20;;;0.70;;
15577;SDS011;17667;45.598;5.214;2023-04-01T04:09:02;0.60;;;0.57;;
15577;SDS011;17667;45.598;5.214;2023-04-01T04:11:50;0.87;;;0.70;;
15577;SDS011;17667;45.598;5.214;2023-04-01T04:14:37;0.60;;;0.57;;
15577;SDS011;17667;45.598;5.214;2023-04-01T04:17:25;0.60;;;0.60;;
15577;SDS011;17667;45.598;5.214;2023-04-01T04:20:13;0.50;;;0.50;;
15577;SDS011;17667;45.598;5.214;2023-04-01T04:23:01;0.40;;;0.37;;
15577;SDS011;17667;45.598;5.214;2023-04-01T04:25:55;0.40;;;0.40;;
15577;SDS011;17667;45.598;5.214;2023-04-01T04:28:44;0.30;;;0.30;;
15577;SDS011;17667;45.598;5.214;2023-04-01T04:31:33;0.30;;;0.30;;
15577;SDS011;17667;45.598;5.214;2023-04-01T04:34:21;0.10;;;0.10;;
15577;SDS011;17667;45.598;5.214;2023-04-01T04:37:09;0.30;;;0.30;;
15577;SDS011;17667;45.598;5.214;2023-04-01T04:39:57;0.30;;;0.30;;
15577;SDS011;17667;45.598;5.214;2023-04-01T04:42:46;0.40;;;0.40;;
15577;SDS011;17667;45.598;5.214;2023-04-01T04:45:34;0.70;;;0.70;;
15577;SDS011;17667;45.598;5.214;2023-04-01T04:48:22;0.43;;;0.43;;
15577;SDS011;17667;45.598;5.214;2023-04-01T04:51:12;0.63;;;0.50;;
15577;SDS011;17667;45.598;5.214;2023-04-01T04:54:01;0.50;;;0.50;;
15577;SDS011;17667;45.598;5.214;2023-04-01T04:57:24;0.90;;;0.70;;
15577;SDS011;17667;45.598;5.214;2023-04-01T05:00:15;0.70;;;0.60;;
15577;SDS011;17667;45.598;5.214;2023-04-01T05:03:24;0.70;;;0.60;;
15577;SDS011;17667;45.598;5.214;2023-04-01T05:06:13;0.50;;;0.50;;
15577;SDS011;17667;45.598;5.214;2023-04-01T05:09:02;0.40;;;0.40;;
15577;SDS011;17667;45.598;5.214;2023-04-01T05:11:50;0.57;;;0.53;;
15577;SDS011;17667;45.598;5.214;2023-04-01T05:14:39;0.30;;;0.30;;
15577;SDS011;17667;45.598;5.214;2023-04-01T05:17:30;0.67;;;0.50;;
15577;SDS011;17667;45.598;5.214;2023-04-01T05:20:18;0.43;;;0.43;;
15577;SDS011;17667;45.598;5.214;2023-04-01T05:23:05;0.50;;;0.50;;
15577;SDS011;17667;45.598;5.214;2023-04-01T05:25:53;0.30;;;0.30;;
15577;SDS011;17667;45.598;5.214;2023-04-01T05:28:42;0.90;;;0.90;;
15577;SDS011;17667;45.598;5.214;2023-04-01T05:31:30;1.20;;;1.00;;
15577;SDS011;17667;45.598;5.214;2023-04-01T05:34:19;1.17;;;0.90;;
15577;SDS011;17667;45.598;5.214;2023-04-01T05:37:07;1.47;;;0.80;;
15577;SDS011;17667;45.598;5.214;2023-04-01T05:39:55;1.07;;;0.90;;
15577;SDS011;17667;45.598;5.214;2023-04-01T05:42:44;2.10;;;1.47;;
15577;SDS011;17667;45.598;5.214;2023-04-01T05:45:33;1.40;;;1.30;;
15577;SDS011;17667;45.598;5.214;2023-04-01T05:48:30;1.87;;;1.20;;
15577;SDS011;17667;45.598;5.214;2023-04-01T05:51:21;1.10;;;1.00;;
15577;SDS011;17667;45.598;5.214;2023-04-01T05:54:09;0.90;;;0.70;;
15577;SDS011;17667;45.598;5.214;2023-04-01T05:56:57;0.70;;;0.70;;
15577;SDS011;17667;45.598;5.214;2023-04-01T05:59:45;0.60;;;0.60;;
15577;SDS011;17667;45.598;5.214;2023-04-01T06:02:33;0.60;;;0.60;;
15577;SDS011;17667;45.598;5.214;2023-04-01T06:05:21;0.50;;;0.50;;
15577;SDS011;17667;45.598;5.214;2023-04-01T06:08:13;0.53;;;0.53;;
15577;SDS011;17667;45.598;5.214;2023-04-01T06:11:06;0.87;;;0.40;;
15577;SDS011;17667;45.598;5.214;2023-04-01T06:14:16;0.40;;;0.40;;
15577;SDS011;17667;45.598;5.214;2023-04-01T06:17:20;0.47;;;0.47;;
15577;SDS011;17667;45.598;5.214;2023-04-01T06:20:16;0.50;;;0.50;;
15577;SDS011;17667;45.598;5.214;2023-04-01T06:23:19;0.70;;;0.70;;
15577;SDS011;17667;45.598;5.214;2023-04-01T06:26:22;1.00;;;0.90;;
15577;SDS011;17667;45.598;5.214;2023-04-01T06:29:26;1.13;;;0.90;;
15577;SDS011;17667;45.598;5.214;2023-04-01T06:32:40;1.40;;;1.30;;
15577;SDS011;17667;45.598;5.214;2023-04-01T06:35:43;4.53;;;2.80;;
15577;SDS011;17667;45.598;5.214;2023-04-01T06:42:08;3.40;;;2.40;;
15577;SDS011;17667;45.598;5.214;2023-04-01T06:45:13;3.03;;;1.90;;
15577;SDS011;17667;45.598;5.214;2023-04-01T06:48:35;2.83;;;1.47;;
15577;SDS011;17667;45.598;5.214;2023-04-01T06:51:55;2.93;;;1.80;;
15577;SDS011;17667;45.598;5.214;2023-04-01T06:55:13;2.40;;;1.60;;
15577;SDS011;17667;45.598;5.214;2023-04-01T06:58:33;3.93;;;1.70;;
15577;SDS011;17667;45.598;5.214;2023-04-01T07:01:26;2.27;;;1.53;;
15577;SDS011;17667;45.598;5.214;2023-04-01T07:04:22;1.90;;;1.50;;
15577;SDS011;17667;45.598;5.214;2023-04-01T07:07:19;1.90;;;1.37;;
15577;SDS011;17667;45.598;5.214;2023-04-01T07:10:28;1.50;;;1.10;;
15577;SDS011;17667;45.598;5.214;2023-04-01T07:13:41;1.20;;;1.00;;
15577;SDS011;17667;45.598;5.214;2023-04-01T07:16:36;1.57;;;1.03;;
15577;SDS011;17667;45.598;5.214;2023-04-01T07:19:29;1.80;;;1.23;;
15577;SDS011;17667;45.598;5.214;2023-04-01T07:22:25;1.40;;;1.00;;
15577;SDS011;17667;45.598;5.214;2023-04-01T07:25:28;0.90;;;0.80;;
15577;SDS011;17667;45.598;5.214;2023-04-01T07:28:39;1.70;;;1.10;;
15577;SDS011;17667;45.598;5.214;2023-04-01T07:31:45;0.80;;;0.80;;
15577;SDS011;17667;45.598;5.214;2023-04-01T07:34:47;1.07;;;0.90;;
